sensor_id;sensor_type;location;lat;lon;timestamp;P1;durP1;ratioP1;P2;durP2;ratioP2
35990;SDS011;22064;42.672;23.282;2023-08-01T00:02:24;4.25;;;2.80;;
35990;SDS011;22064;42.672;23.282;2023-08-01T00:04:50;6.18;;;2.95;;
35990;SDS011;22064;42.672;23.282;2023-08-01T00:07:16;2.75;;;2.42;;
35990;SDS011;22064;42.672;23.282;2023-08-01T00:09:42;3.03;;;2.50;;
35990;SDS011;22064;42.672;23.282;2023-08-01T00:12:08;3.53;;;2.30;;
35990;SDS011;22064;42.672;23.282;2023-08-01T00:14:35;4.22;;;2.63;;
35990;SDS011;22064;42.672;23.282;2023-08-01T00:17:01;5.57;;;3.10;;
35990;SDS011;22064;42.672;23.282;2023-08-01T00:19:28;3.45;;;2.40;;
35990;SDS011;22064;42.672;23.282;2023-08-01T00:21:54;4.75;;;2.72;;
35990;SDS011;22064;42.672;23.282;2023-08-01T00:24:20;4.32;;;2.72;;
35990;SDS011;22064;42.672;23.282;2023-08-01T00:26:45;4.05;;;3.13;;
35990;SDS011;22064;42.672;23.282;2023-08-01T00:29:13;4.25;;;2.45;;
35990;SDS011;22064;42.672;23.282;2023-08-01T00:31:39;3.22;;;2.40;;
35990;SDS011;22064;42.672;23.282;2023-08-01T00:34:05;3.38;;;2.63;;
35990;SDS011;22064;42.672;23.282;2023-08-01T00:36:31;3.17;;;2.40;;
35990;SDS011;22064;42.672;23.282;2023-08-01T00:38:57;3.80;;;2.38;;
35990;SDS011;22064;42.672;23.282;2023-08-01T00:41:23;4.68;;;3.10;;
35990;SDS011;22064;42.672;23.282;2023-08-01T00:43:49;4.03;;;2.53;;
35990;SDS011;22064;42.672;23.282;2023-08-01T00:46:15;5.90;;;2.83;;
35990;SDS011;22064;42.672;23.282;2023-08-01T00:48:41;3.45;;;2.63;;
35990;SDS011;22064;42.672;23.282;2023-08-01T00:51:07;6.25;;;2.60;;
35990;SDS011;22064;42.672;23.282;2023-08-01T00:53:35;5.10;;;2.97;;
35990;SDS011;22064;42.672;23.282;2023-08-01T00:56:01;5.40;;;3.40;;
35990;SDS011;22064;42.672;23.282;2023-08-01T00:58:27;3.55;;;2.60;;
35990;SDS011;22064;42.672;23.282;2023-08-01T01:00:53;4.60;;;2.60;;
35990;SDS011;22064;42.672;23.282;2023-08-01T01:03:21;4.85;;;2.72;;
35990;SDS011;22064;42.672;23.282;2023-08-01T01:05:49;6.80;;;3.10;;
35990;SDS011;22064;42.672;23.282;2023-08-01T01:08:28;3.47;;;2.33;;
35990;SDS011;22064;42.672;23.282;2023-08-01T01:10:54;3.08;;;2.72;;
35990;SDS011;22064;42.672;23.282;2023-08-01T01:13:20;4.20;;;2.90;;
35990;SDS011;22064;42.672;23.282;2023-08-01T01:15:45;5.55;;;2.80;;
35990;SDS011;22064;42.672;23.282;2023-08-01T01:18:12;5.15;;;2.88;;
35990;SDS011;22064;42.672;23.282;2023-08-01T01:20:39;4.95;;;2.78;;
35990;SDS011;22064;42.672;23.282;2023-08-01T01:23:05;5.32;;;3.20;;
35990;SDS011;22064;42.672;23.282;2023-08-01T01:25:32;4.13;;;2.58;;
35990;SDS011;22064;42.672;23.282;2023-08-01T01:28:00;4.10;;;2.85;;
35990;SDS011;22064;42.672;23.282;2023-08-01T01:30:29;4.97;;;2.72;;
35990;SDS011;22064;42.672;23.282;2023-08-01T01:32:59;4.35;;;2.78;;
35990;SDS011;22064;42.672;23.282;2023-08-01T01:35:26;4.57;;;2.85;;
35990;SDS011;22064;42.672;23.282;2023-08-01T01:37:52;4.35;;;2.42;;
35990;SDS011;22064;42.672;23.282;2023-08-01T01:40:18;3.97;;;2.70;;
35990;SDS011;22064;42.672;23.282;2023-08-01T01:42:44;5.63;;;2.80;;
35990;SDS011;22064;42.672;23.282;2023-08-01T01:45:10;3.38;;;2.60;;
35990;SDS011;22064;42.672;23.282;2023-08-01T01:47:36;5.22;;;2.90;;
35990;SDS011;22064;42.672;23.282;2023-08-01T01:50:02;6.45;;;2.72;;
35990;SDS011;22064;42.672;23.282;2023-08-01T01:52:29;3.60;;;2.58;;
35990;SDS011;22064;42.672;23.282;2023-08-01T01:54:55;6.72;;;2.53;;
35990;SDS011;22064;42.672;23.282;2023-08-01T01:57:21;4.80;;;2.75;;
35990;SDS011;22064;42.672;23.282;2023-08-01T01:59:47;3.75;;;2.88;;
35990;SDS011;22064;42.672;23.282;2023-08-01T02:02:13;4.57;;;2.78;;
35990;SDS011;22064;42.672;23.282;2023-08-01T02:04:39;3.63;;;2.63;;
35990;SDS011;22064;42.672;23.282;2023-08-01T02:07:06;5.20;;;2.83;;
35990;SDS011;22064;42.672;23.282;2023-08-01T02:09:32;5.03;;;2.80;;
35990;SDS011;22064;42.672;23.282;2023-08-01T02:11:59;5.00;;;2.72;;
35990;SDS011;22064;42.672;23.282;2023-08-01T02:14:25;5.10;;;2.63;;
35990;SDS011;22064;42.672;23.282;2023-08-01T02:16:51;6.40;;;2.85;;
35990;SDS011;22064;42.672;23.282;2023-08-01T02:19:17;4.38;;;3.08;;
35990;SDS011;22064;42.672;23.282;2023-08-01T02:21:43;4.70;;;2.90;;
35990;SDS011;22064;42.672;23.282;2023-08-01T02:24:10;3.67;;;2.72;;
35990;SDS011;22064;42.672;23.282;2023-08-01T02:26:37;3.00;;;2.55;;
35990;SDS011;22064;42.672;23.282;2023-08-01T02:29:03;4.75;;;2.45;;
35990;SDS011;22064;42.672;23.282;2023-08-01T02:31:30;4.95;;;2.78;;
35990;SDS011;22064;42.672;23.282;2023-08-01T02:33:56;4.85;;;2.40;;
35990;SDS011;22064;42.672;23.282;2023-08-01T02:36:22;6.30;;;3.22;;
35990;SDS011;22064;42.672;23.282;2023-08-01T02:38:48;4.53;;;2.60;;
35990;SDS011;22064;42.672;23.282;2023-08-01T02:41:14;4.93;;;2.80;;
35990;SDS011;22064;42.672;23.282;2023-08-01T02:43:40;3.58;;;2.90;;
35990;SDS011;22064;42.672;23.282;2023-08-01T02:46:07;4.93;;;3.00;;
35990;SDS011;22064;42.672;23.282;2023-08-01T02:48:33;6.32;;;2.83;;
35990;SDS011;22064;42.672;23.282;2023-08-01T02:51:01;5.28;;;2.92;;
35990;SDS011;22064;42.672;23.282;2023-08-01T02:53:27;3.95;;;2.60;;
35990;SDS011;22064;42.672;23.282;2023-08-01T02:55:53;6.13;;;2.63;;
35990;SDS011;22064;42.672;23.282;2023-08-01T02:58:19;4.93;;;2.83;;
35990;SDS011;22064;42.672;23.282;2023-08-01T03:00:45;3.67;;;2.75;;
35990;SDS011;22064;42.672;23.282;2023-08-01T03:03:13;7.63;;;2.90;;
35990;SDS011;22064;42.672;23.282;2023-08-01T03:05:39;6.25;;;2.80;;
35990;SDS011;22064;42.672;23.282;2023-08-01T03:08:05;3.58;;;2.65;;
35990;SDS011;22064;42.672;23.282;2023-08-01T03:10:31;6.00;;;2.97;;
35990;SDS011;22064;42.672;23.282;2023-08-01T03:12:57;5.50;;;2.72;;
35990;SDS011;22064;42.672;23.282;2023-08-01T03:15:23;3.53;;;2.75;;
35990;SDS011;22064;42.672;23.282;2023-08-01T03:17:49;5.53;;;2.88;;
35990;SDS011;22064;42.672;23.282;2023-08-01T03:20:15;5.90;;;3.05;;
35990;SDS011;22064;42.672;23.282;2023-08-01T03:22:41;5.78;;;2.90;;
35990;SDS011;22064;42.672;23.282;2023-08-01T03:25:07;6.05;;;3.10;;
35990;SDS011;22064;42.672;23.282;2023-08-01T03:27:34;7.38;;;3.13;;
35990;SDS011;22064;42.672;23.282;2023-08-01T03:30:00;3.60;;;3.15;;
35990;SDS011;22064;42.672;23.282;2023-08-01T03:32:27;3.08;;;2.60;;
35990;SDS011;22064;42.672;23.282;2023-08-01T03:34:53;5.07;;;3.30;;
35990;SDS011;22064;42.672;23.282;2023-08-01T03:37:19;5.45;;;3.03;;
35990;SDS011;22064;42.672;23.282;2023-08-01T03:39:45;4.82;;;2.83;;
35990;SDS011;22064;42.672;23.282;2023-08-01T03:42:11;4.25;;;2.92;;
35990;SDS011;22064;42.672;23.282;2023-08-01T03:44:37;4.78;;;2.85;;
35990;SDS011;22064;42.672;23.282;2023-08-01T03:47:03;5.88;;;2.90;;
35990;SDS011;22064;42.672;23.282;2023-08-01T03:49:29;5.18;;;3.20;;
35990;SDS011;22064;42.672;23.282;2023-08-01T03:51:56;5.93;;;2.92;;
35990;SDS011;22064;42.672;23.282;2023-08-01T03:54:22;6.60;;;3.05;;
35990;SDS011;22064;42.672;23.282;2023-08-01T03:56:48;5.25;;;3.30;;
35990;SDS011;22064;42.672;23.282;2023-08-01T03:59:14;6.38;;;2.97;;
35990;SDS011;22064;42.672;23.282;2023-08-01T04:01:41;4.80;;;3.25;;
35990;SDS011;22064;42.672;23.282;2023-08-01T04:04:08;5.22;;;3.40;;
35990;SDS011;22064;42.672;23.282;2023-08-01T04:06:34;8.27;;;3.30;;
35990;SDS011;22064;42.672;23.282;2023-08-01T04:09:00;6.10;;;3.45;;
35990;SDS011;22064;42.672;23.282;2023-08-01T04:11:26;6.40;;;3.88;;
35990;SDS011;22064;42.672;23.282;2023-08-01T04:13:53;7.28;;;3.47;;
35990;SDS011;22064;42.672;23.282;2023-08-01T04:16:19;10.52;;;3.50;;
35990;SDS011;22064;42.672;23.282;2023-08-01T04:18:45;5.95;;;3.00;;
35990;SDS011;22064;42.672;23.282;2023-08-01T04:21:13;8.95;;;3.65;;
35990;SDS011;22064;42.672;23.282;2023-08-01T04:23:40;5.17;;;3.20;;
35990;SDS011;22064;42.672;23.282;2023-08-01T04:26:06;9.27;;;3.30;;
35990;SDS011;22064;42.672;23.282;2023-08-01T04:28:33;6.82;;;3.47;;
35990;SDS011;22064;42.672;23.282;2023-08-01T04:31:02;7.50;;;3.33;;
35990;SDS011;22064;42.672;23.282;2023-08-01T04:33:28;9.20;;;3.90;;
35990;SDS011;22064;42.672;23.282;2023-08-01T04:35:54;5.97;;;3.30;;
35990;SDS011;22064;42.672;23.282;2023-08-01T04:38:20;7.50;;;3.38;;
35990;SDS011;22064;42.672;23.282;2023-08-01T04:40:46;7.68;;;3.78;;
35990;SDS011;22064;42.672;23.282;2023-08-01T04:43:13;6.50;;;3.88;;
35990;SDS011;22064;42.672;23.282;2023-08-01T04:45:39;6.78;;;3.70;;
35990;SDS011;22064;42.672;23.282;2023-08-01T04:48:05;5.47;;;3.28;;
35990;SDS011;22064;42.672;23.282;2023-08-01T04:50:30;8.23;;;3.85;;
35990;SDS011;22064;42.672;23.282;2023-08-01T04:52:57;6.50;;;3.50;;
35990;SDS011;22064;42.672;23.282;2023-08-01T04:55:22;6.40;;;3.53;;
35990;SDS011;22064;42.672;23.282;2023-08-01T04:57:51;8.10;;;3.78;;
35990;SDS011;22064;42.672;23.282;2023-08-01T05:00:17;8.40;;;3.78;;
35990;SDS011;22064;42.672;23.282;2023-08-01T05:02:43;6.63;;;3.83;;
35990;SDS011;22064;42.672;23.282;2023-08-01T05:05:08;6.93;;;3.67;;
35990;SDS011;22064;42.672;23.282;2023-08-01T05:07:35;8.88;;;3.83;;
35990;SDS011;22064;42.672;23.282;2023-08-01T05:10:01;5.72;;;3.78;;
35990;SDS011;22064;42.672;23.282;2023-08-01T05:12:27;11.05;;;4.30;;
35990;SDS011;22064;42.672;23.282;2023-08-01T05:14:53;7.43;;;3.83;;
35990;SDS011;22064;42.672;23.282;2023-08-01T05:17:19;10.90;;;4.30;;
35990;SDS011;22064;42.672;23.282;2023-08-01T05:19:45;7.45;;;3.83;;
35990;SDS011;22064;42.672;23.282;2023-08-01T05:22:11;8.98;;;4.05;;
35990;SDS011;22064;42.672;23.282;2023-08-01T05:24:36;8.10;;;4.00;;
35990;SDS011;22064;42.672;23.282;2023-08-01T05:27:02;7.57;;;3.50;;
35990;SDS011;22064;42.672;23.282;2023-08-01T05:29:28;9.38;;;3.53;;
35990;SDS011;22064;42.672;23.282;2023-08-01T05:31:54;8.05;;;3.70;;
35990;SDS011;22064;42.672;23.282;2023-08-01T05:34:20;9.18;;;4.07;;
35990;SDS011;22064;42.672;23.282;2023-08-01T05:36:46;7.55;;;3.72;;
35990;SDS011;22064;42.672;23.282;2023-08-01T05:39:12;8.35;;;3.90;;
35990;SDS011;22064;42.672;23.282;2023-08-01T05:41:38;8.25;;;3.90;;
35990;SDS011;22064;42.672;23.282;2023-08-01T05:44:04;10.05;;;4.43;;
35990;SDS011;22064;42.672;23.282;2023-08-01T05:46:30;9.32;;;3.95;;
35990;SDS011;22064;42.672;23.282;2023-08-01T05:48:57;11.65;;;4.55;;
35990;SDS011;22064;42.672;23.282;2023-08-01T05:51:23;7.15;;;3.60;;
35990;SDS011;22064;42.672;23.282;2023-08-01T05:53:49;9.25;;;4.68;;
35990;SDS011;22064;42.672;23.282;2023-08-01T05:56:15;12.82;;;4.38;;
35990;SDS011;22064;42.672;23.282;2023-08-01T05:58:40;6.63;;;3.55;;
35990;SDS011;22064;42.672;23.282;2023-08-01T06:01:06;7.38;;;3.22;;
35990;SDS011;22064;42.672;23.282;2023-08-01T06:03:34;8.05;;;3.72;;
35990;SDS011;22064;42.672;23.282;2023-08-01T06:06:00;4.95;;;3.22;;
35990;SDS011;22064;42.672;23.282;2023-08-01T06:08:26;5.60;;;3.30;;
35990;SDS011;22064;42.672;23.282;2023-08-01T06:10:52;4.18;;;3.13;;
35990;SDS011;22064;42.672;23.282;2023-08-01T06:13:18;4.40;;;2.90;;
35990;SDS011;22064;42.672;23.282;2023-08-01T06:15:46;8.00;;;3.58;;
35990;SDS011;22064;42.672;23.282;2023-08-01T06:18:12;3.55;;;2.58;;
35990;SDS011;22064;42.672;23.282;2023-08-01T06:20:38;4.85;;;2.75;;
35990;SDS011;22064;42.672;23.282;2023-08-01T06:23:05;8.32;;;2.85;;
35990;SDS011;22064;42.672;23.282;2023-08-01T06:25:31;6.35;;;2.53;;
35990;SDS011;22064;42.672;23.282;2023-08-01T06:27:57;5.70;;;2.78;;
35990;SDS011;22064;42.672;23.282;2023-08-01T06:30:22;5.32;;;2.67;;
35990;SDS011;22064;42.672;23.282;2023-08-01T06:32:48;4.88;;;3.08;;
35990;SDS011;22064;42.672;23.282;2023-08-01T06:35:15;5.13;;;2.80;;
35990;SDS011;22064;42.672;23.282;2023-08-01T06:37:41;7.40;;;3.28;;
35990;SDS011;22064;42.672;23.282;2023-08-01T06:40:07;5.82;;;3.22;;
35990;SDS011;22064;42.672;23.282;2023-08-01T06:42:34;6.25;;;3.00;;
35990;SDS011;22064;42.672;23.282;2023-08-01T06:45:00;5.65;;;2.75;;
35990;SDS011;22064;42.672;23.282;2023-08-01T06:47:26;5.70;;;3.00;;
35990;SDS011;22064;42.672;23.282;2023-08-01T06:49:52;5.30;;;3.15;;
35990;SDS011;22064;42.672;23.282;2023-08-01T06:52:18;4.15;;;2.92;;
35990;SDS011;22064;42.672;23.282;2023-08-01T06:54:44;7.82;;;3.05;;
35990;SDS011;22064;42.672;23.282;2023-08-01T06:57:09;7.78;;;3.00;;
35990;SDS011;22064;42.672;23.282;2023-08-01T06:59:35;4.53;;;2.70;;
35990;SDS011;22064;42.672;23.282;2023-08-01T07:02:01;6.32;;;2.97;;
35990;SDS011;22064;42.672;23.282;2023-08-01T07:04:28;5.75;;;3.05;;
35990;SDS011;22064;42.672;23.282;2023-08-01T07:06:54;7.40;;;2.88;;
35990;SDS011;22064;42.672;23.282;2023-08-01T07:09:20;6.55;;;2.88;;
35990;SDS011;22064;42.672;23.282;2023-08-01T07:11:46;6.20;;;2.78;;
35990;SDS011;22064;42.672;23.282;2023-08-01T07:14:12;6.97;;;3.08;;
35990;SDS011;22064;42.672;23.282;2023-08-01T07:16:38;13.05;;;3.63;;
35990;SDS011;22064;42.672;23.282;2023-08-01T07:19:04;4.65;;;3.10;;
35990;SDS011;22064;42.672;23.282;2023-08-01T07:21:31;5.40;;;3.00;;
35990;SDS011;22064;42.672;23.282;2023-08-01T07:23:57;7.53;;;3.00;;
35990;SDS011;22064;42.672;23.282;2023-08-01T07:26:23;5.13;;;3.38;;
35990;SDS011;22064;42.672;23.282;2023-08-01T07:28:49;8.38;;;3.22;;
35990;SDS011;22064;42.672;23.282;2023-08-01T07:31:15;5.90;;;2.85;;
35990;SDS011;22064;42.672;23.282;2023-08-01T07:33:41;7.05;;;3.17;;
35990;SDS011;22064;42.672;23.282;2023-08-01T07:36:07;7.57;;;2.85;;
35990;SDS011;22064;42.672;23.282;2023-08-01T07:38:33;7.50;;;2.90;;
35990;SDS011;22064;42.672;23.282;2023-08-01T07:41:03;5.50;;;3.30;;
35990;SDS011;22064;42.672;23.282;2023-08-01T07:43:30;5.50;;;3.65;;
35990;SDS011;22064;42.672;23.282;2023-08-01T07:45:56;8.32;;;3.65;;
35990;SDS011;22064;42.672;23.282;2023-08-01T07:48:23;5.82;;;3.10;;
35990;SDS011;22064;42.672;23.282;2023-08-01T07:50:49;6.70;;;3.28;;
35990;SDS011;22064;42.672;23.282;2023-08-01T07:53:15;7.07;;;3.20;;
35990;SDS011;22064;42.672;23.282;2023-08-01T07:55:41;7.07;;;3.30;;
35990;SDS011;22064;42.672;23.282;2023-08-01T07:58:07;7.20;;;3.33;;
35990;SDS011;22064;42.672;23.282;2023-08-01T08:00:36;7.50;;;3.20;;
35990;SDS011;22064;42.672;23.282;2023-08-01T08:03:02;5.38;;;3.33;;
35990;SDS011;22064;42.672;23.282;2023-08-01T08:05:28;8.60;;;3.40;;
35990;SDS011;22064;42.672;23.282;2023-08-01T08:07:54;6.85;;;3.13;;
35990;SDS011;22064;42.672;23.282;2023-08-01T08:10:20;13.27;;;4.18;;
35990;SDS011;22064;42.672;23.282;2023-08-01T08:12:46;9.20;;;3.65;;
35990;SDS011;22064;42.672;23.282;2023-08-01T08:15:12;6.68;;;3.20;;
35990;SDS011;22064;42.672;23.282;2023-08-01T08:17:39;6.60;;;3.80;;
35990;SDS011;22064;42.672;23.282;2023-08-01T08:20:05;6.53;;;3.28;;
35990;SDS011;22064;42.672;23.282;2023-08-01T08:22:31;8.70;;;3.45;;
35990;SDS011;22064;42.672;23.282;2023-08-01T08:24:58;6.30;;;3.60;;
35990;SDS011;22064;42.672;23.282;2023-08-01T08:27:24;9.35;;;3.80;;
35990;SDS011;22064;42.672;23.282;2023-08-01T08:29:50;8.20;;;3.42;;
35990;SDS011;22064;42.672;23.282;2023-08-01T08:32:16;4.72;;;3.13;;
35990;SDS011;22064;42.672;23.282;2023-08-01T08:34:42;5.38;;;3.17;;
35990;SDS011;22064;42.672;23.282;2023-08-01T08:37:08;6.00;;;3.28;;
35990;SDS011;22064;42.672;23.282;2023-08-01T08:39:34;7.20;;;3.20;;
35990;SDS011;22064;42.672;23.282;2023-08-01T08:42:00;8.93;;;3.80;;
35990;SDS011;22064;42.672;23.282;2023-08-01T08:44:26;5.65;;;3.58;;
35990;SDS011;22064;42.672;23.282;2023-08-01T08:46:55;5.45;;;3.53;;
35990;SDS011;22064;42.672;23.282;2023-08-01T08:49:29;5.72;;;3.53;;
35990;SDS011;22064;42.672;23.282;2023-08-01T08:51:57;6.57;;;3.47;;
35990;SDS011;22064;42.672;23.282;2023-08-01T08:54:24;7.35;;;3.75;;
35990;SDS011;22064;42.672;23.282;2023-08-01T08:56:50;7.90;;;4.10;;
35990;SDS011;22064;42.672;23.282;2023-08-01T08:59:17;6.85;;;3.50;;
35990;SDS011;22064;42.672;23.282;2023-08-01T09:01:44;5.22;;;3.28;;
35990;SDS011;22064;42.672;23.282;2023-08-01T09:04:11;8.10;;;3.78;;
35990;SDS011;22064;42.672;23.282;2023-08-01T09:06:39;6.57;;;3.47;;
35990;SDS011;22064;42.672;23.282;2023-08-01T09:09:13;9.73;;;3.90;;
35990;SDS011;22064;42.672;23.282;2023-08-01T09:11:46;7.10;;;3.65;;
35990;SDS011;22064;42.672;23.282;2023-08-01T09:14:14;7.38;;;3.80;;
35990;SDS011;22064;42.672;23.282;2023-08-01T09:16:41;6.57;;;4.40;;
35990;SDS011;22064;42.672;23.282;2023-08-01T09:19:08;9.68;;;3.70;;
35990;SDS011;22064;42.672;23.282;2023-08-01T09:21:35;6.20;;;3.75;;
35990;SDS011;22064;42.672;23.282;2023-08-01T09:24:08;5.70;;;3.70;;
35990;SDS011;22064;42.672;23.282;2023-08-01T09:26:34;7.15;;;3.65;;
35990;SDS011;22064;42.672;23.282;2023-08-01T09:29:00;10.32;;;3.60;;
35990;SDS011;22064;42.672;23.282;2023-08-01T09:31:28;4.82;;;3.33;;
35990;SDS011;22064;42.672;23.282;2023-08-01T09:33:56;9.23;;;3.60;;
35990;SDS011;22064;42.672;23.282;2023-08-01T09:36:22;5.80;;;3.63;;
35990;SDS011;22064;42.672;23.282;2023-08-01T09:38:49;7.68;;;3.83;;
35990;SDS011;22064;42.672;23.282;2023-08-01T09:41:19;5.85;;;3.92;;
35990;SDS011;22064;42.672;23.282;2023-08-01T09:43:49;7.30;;;3.63;;
35990;SDS011;22064;42.672;23.282;2023-08-01T09:46:15;9.38;;;3.80;;
35990;SDS011;22064;42.672;23.282;2023-08-01T09:48:41;5.93;;;3.80;;
35990;SDS011;22064;42.672;23.282;2023-08-01T09:51:10;7.65;;;3.83;;
35990;SDS011;22064;42.672;23.282;2023-08-01T09:53:47;11.38;;;3.97;;
35990;SDS011;22064;42.672;23.282;2023-08-01T09:56:19;11.40;;;4.00;;
35990;SDS011;22064;42.672;23.282;2023-08-01T09:58:47;7.88;;;4.20;;
35990;SDS011;22064;42.672;23.282;2023-08-01T10:01:14;5.88;;;3.85;;
35990;SDS011;22064;42.672;23.282;2023-08-01T10:03:47;6.53;;;4.03;;
35990;SDS011;22064;42.672;23.282;2023-08-01T10:06:17;8.90;;;3.95;;
35990;SDS011;22064;42.672;23.282;2023-08-01T10:08:48;6.95;;;3.95;;
35990;SDS011;22064;42.672;23.282;2023-08-01T10:11:16;8.40;;;4.50;;
35990;SDS011;22064;42.672;23.282;2023-08-01T10:13:44;5.40;;;3.92;;
35990;SDS011;22064;42.672;23.282;2023-08-01T10:16:11;8.50;;;4.05;;
35990;SDS011;22064;42.672;23.282;2023-08-01T10:18:38;7.82;;;3.70;;
35990;SDS011;22064;42.672;23.282;2023-08-01T10:21:05;4.93;;;3.63;;
35990;SDS011;22064;42.672;23.282;2023-08-01T10:23:33;7.50;;;4.22;;
35990;SDS011;22064;42.672;23.282;2023-08-01T10:26:00;7.82;;;3.90;;
35990;SDS011;22064;42.672;23.282;2023-08-01T10:28:32;8.48;;;4.20;;
35990;SDS011;22064;42.672;23.282;2023-08-01T10:33:34;9.02;;;4.43;;
35990;SDS011;22064;42.672;23.282;2023-08-01T10:36:00;8.35;;;4.28;;
35990;SDS011;22064;42.672;23.282;2023-08-01T10:38:26;6.00;;;3.75;;
35990;SDS011;22064;42.672;23.282;2023-08-01T10:40:52;8.75;;;4.40;;
35990;SDS011;22064;42.672;23.282;2023-08-01T10:43:21;6.75;;;4.05;;
35990;SDS011;22064;42.672;23.282;2023-08-01T10:45:48;6.80;;;4.00;;
35990;SDS011;22064;42.672;23.282;2023-08-01T10:48:25;9.07;;;4.18;;
35990;SDS011;22064;42.672;23.282;2023-08-01T10:50:55;11.60;;;3.97;;
35990;SDS011;22064;42.672;23.282;2023-08-01T10:53:22;9.45;;;3.70;;
35990;SDS011;22064;42.672;23.282;2023-08-01T10:55:48;5.22;;;3.47;;
35990;SDS011;22064;42.672;23.282;2023-08-01T10:58:15;8.65;;;4.18;;
35990;SDS011;22064;42.672;23.282;2023-08-01T11:00:41;6.13;;;3.53;;
35990;SDS011;22064;42.672;23.282;2023-08-01T11:03:08;6.20;;;3.38;;
35990;SDS011;22064;42.672;23.282;2023-08-01T11:05:34;4.95;;;2.88;;
35990;SDS011;22064;42.672;23.282;2023-08-01T11:08:00;3.75;;;2.78;;
35990;SDS011;22064;42.672;23.282;2023-08-01T11:10:29;4.80;;;2.85;;
35990;SDS011;22064;42.672;23.282;2023-08-01T11:12:56;2.97;;;2.67;;
35990;SDS011;22064;42.672;23.282;2023-08-01T11:15:24;4.25;;;2.80;;
35990;SDS011;22064;42.672;23.282;2023-08-01T11:17:50;3.47;;;2.92;;
35990;SDS011;22064;42.672;23.282;2023-08-01T11:20:21;6.07;;;2.97;;
35990;SDS011;22064;42.672;23.282;2023-08-01T11:22:58;2.80;;;2.58;;
35990;SDS011;22064;42.672;23.282;2023-08-01T11:25:31;4.55;;;2.95;;
35990;SDS011;22064;42.672;23.282;2023-08-01T11:28:10;4.57;;;2.78;;
35990;SDS011;22064;42.672;23.282;2023-08-01T11:30:40;3.90;;;2.65;;
35990;SDS011;22064;42.672;23.282;2023-08-01T11:33:20;3.03;;;2.65;;
35990;SDS011;22064;42.672;23.282;2023-08-01T11:35:51;5.65;;;2.92;;
35990;SDS011;22064;42.672;23.282;2023-08-01T11:38:20;4.72;;;3.05;;
35990;SDS011;22064;42.672;23.282;2023-08-01T11:40:47;3.53;;;2.70;;
35990;SDS011;22064;42.672;23.282;2023-08-01T11:43:15;4.63;;;2.97;;
35990;SDS011;22064;42.672;23.282;2023-08-01T11:45:48;4.20;;;2.80;;
35990;SDS011;22064;42.672;23.282;2023-08-01T11:48:22;5.78;;;2.60;;
35990;SDS011;22064;42.672;23.282;2023-08-01T11:50:57;3.38;;;2.58;;
35990;SDS011;22064;42.672;23.282;2023-08-01T11:53:23;2.90;;;2.58;;
35990;SDS011;22064;42.672;23.282;2023-08-01T11:55:50;2.80;;;2.30;;
35990;SDS011;22064;42.672;23.282;2023-08-01T12:01:02;4.85;;;3.03;;
35990;SDS011;22064;42.672;23.282;2023-08-01T12:03:46;6.28;;;3.58;;
35990;SDS011;22064;42.672;23.282;2023-08-01T12:06:12;6.57;;;2.97;;
35990;SDS011;22064;42.672;23.282;2023-08-01T12:08:42;6.28;;;3.20;;
35990;SDS011;22064;42.672;23.282;2023-08-01T12:11:25;5.20;;;3.58;;
35990;SDS011;22064;42.672;23.282;2023-08-01T12:16:30;4.32;;;2.92;;
35990;SDS011;22064;42.672;23.282;2023-08-01T12:18:57;3.58;;;2.90;;
35990;SDS011;22064;42.672;23.282;2023-08-01T12:21:23;5.15;;;3.20;;
35990;SDS011;22064;42.672;23.282;2023-08-01T12:23:50;5.43;;;3.60;;
35990;SDS011;22064;42.672;23.282;2023-08-01T12:26:16;4.90;;;2.67;;
35990;SDS011;22064;42.672;23.282;2023-08-01T12:28:42;4.97;;;2.72;;
35990;SDS011;22064;42.672;23.282;2023-08-01T12:31:09;3.10;;;2.50;;
35990;SDS011;22064;42.672;23.282;2023-08-01T12:33:35;2.80;;;2.30;;
35990;SDS011;22064;42.672;23.282;2023-08-01T12:36:01;3.90;;;2.78;;
35990;SDS011;22064;42.672;23.282;2023-08-01T12:38:28;3.58;;;2.50;;
35990;SDS011;22064;42.672;23.282;2023-08-01T12:40:55;2.85;;;2.55;;
35990;SDS011;22064;42.672;23.282;2023-08-01T12:43:21;3.08;;;2.47;;
35990;SDS011;22064;42.672;23.282;2023-08-01T12:45:48;2.33;;;2.08;;
35990;SDS011;22064;42.672;23.282;2023-08-01T12:48:14;5.47;;;2.70;;
35990;SDS011;22064;42.672;23.282;2023-08-01T12:50:43;2.25;;;2.00;;
35990;SDS011;22064;42.672;23.282;2023-08-01T12:53:11;3.05;;;2.60;;
35990;SDS011;22064;42.672;23.282;2023-08-01T12:55:37;2.25;;;2.05;;
35990;SDS011;22064;42.672;23.282;2023-08-01T12:58:03;2.72;;;2.38;;
35990;SDS011;22064;42.672;23.282;2023-08-01T13:00:30;4.80;;;2.80;;
35990;SDS011;22064;42.672;23.282;2023-08-01T13:02:56;4.38;;;2.60;;
35990;SDS011;22064;42.672;23.282;2023-08-01T13:05:22;3.70;;;2.63;;
35990;SDS011;22064;42.672;23.282;2023-08-01T13:07:48;5.35;;;2.80;;
35990;SDS011;22064;42.672;23.282;2023-08-01T13:10:15;4.55;;;2.42;;
35990;SDS011;22064;42.672;23.282;2023-08-01T13:12:41;3.70;;;2.50;;
35990;SDS011;22064;42.672;23.282;2023-08-01T13:15:07;6.28;;;2.35;;
35990;SDS011;22064;42.672;23.282;2023-08-01T13:17:34;4.00;;;2.70;;
35990;SDS011;22064;42.672;23.282;2023-08-01T13:20:00;3.25;;;2.60;;
35990;SDS011;22064;42.672;23.282;2023-08-01T13:22:27;2.97;;;2.40;;
35990;SDS011;22064;42.672;23.282;2023-08-01T13:24:53;3.70;;;2.50;;
35990;SDS011;22064;42.672;23.282;2023-08-01T13:27:19;3.03;;;2.45;;
35990;SDS011;22064;42.672;23.282;2023-08-01T13:29:45;3.28;;;2.50;;
35990;SDS011;22064;42.672;23.282;2023-08-01T13:32:11;4.93;;;2.30;;
35990;SDS011;22064;42.672;23.282;2023-08-01T13:34:39;3.95;;;2.25;;
35990;SDS011;22064;42.672;23.282;2023-08-01T13:37:05;4.90;;;2.30;;
35990;SDS011;22064;42.672;23.282;2023-08-01T13:39:31;4.20;;;2.40;;
35990;SDS011;22064;42.672;23.282;2023-08-01T13:41:57;6.57;;;2.97;;
35990;SDS011;22064;42.672;23.282;2023-08-01T13:44:23;4.32;;;2.65;;
35990;SDS011;22064;42.672;23.282;2023-08-01T13:46:49;3.15;;;2.45;;
35990;SDS011;22064;42.672;23.282;2023-08-01T13:49:15;3.70;;;2.55;;
35990;SDS011;22064;42.672;23.282;2023-08-01T13:51:41;5.05;;;2.58;;
35990;SDS011;22064;42.672;23.282;2023-08-01T13:54:07;4.10;;;2.63;;
35990;SDS011;22064;42.672;23.282;2023-08-01T13:56:34;3.75;;;2.63;;
35990;SDS011;22064;42.672;23.282;2023-08-01T13:59:00;3.33;;;2.60;;
35990;SDS011;22064;42.672;23.282;2023-08-01T14:01:26;2.90;;;2.60;;
35990;SDS011;22064;42.672;23.282;2023-08-01T14:03:52;2.75;;;2.42;;
35990;SDS011;22064;42.672;23.282;2023-08-01T14:06:18;2.97;;;2.65;;
35990;SDS011;22064;42.672;23.282;2023-08-01T14:08:44;5.30;;;2.47;;
35990;SDS011;22064;42.672;23.282;2023-08-01T14:11:10;5.28;;;2.90;;
35990;SDS011;22064;42.672;23.282;2023-08-01T14:13:37;3.17;;;2.70;;
35990;SDS011;22064;42.672;23.282;2023-08-01T14:16:03;5.18;;;2.50;;
35990;SDS011;22064;42.672;23.282;2023-08-01T14:18:29;2.85;;;2.55;;
35990;SDS011;22064;42.672;23.282;2023-08-01T14:20:55;2.92;;;2.63;;
35990;SDS011;22064;42.672;23.282;2023-08-01T14:23:21;4.25;;;2.78;;
35990;SDS011;22064;42.672;23.282;2023-08-01T14:25:48;2.80;;;2.50;;
35990;SDS011;22064;42.672;23.282;2023-08-01T14:28:14;3.95;;;2.60;;
35990;SDS011;22064;42.672;23.282;2023-08-01T14:30:41;2.90;;;2.50;;
35990;SDS011;22064;42.672;23.282;2023-08-01T14:33:07;3.55;;;2.90;;
35990;SDS011;22064;42.672;23.282;2023-08-01T14:35:34;2.92;;;2.50;;
35990;SDS011;22064;42.672;23.282;2023-08-01T14:38:01;7.50;;;3.08;;
35990;SDS011;22064;42.672;23.282;2023-08-01T14:40:28;5.05;;;2.67;;